createdAt,value
2017-11-01T00:02:36.497Z,5.27
2017-11-01T00:17:35.573Z,4.27
2017-11-01T00:32:34.556Z,4.30
2017-11-01T00:47:35.285Z,4.10
2017-11-01T01:02:35.415Z,7.93
2017-11-01T01:17:34.901Z,5.40
2017-11-01T01:32:34.719Z,5.10
2017-11-01T01:47:34.837Z,5.27
2017-11-01T02:02:33.906Z,5.67
2017-11-01T02:17:34.386Z,5.63
2017-11-01T02:32:35.927Z,4.20
2017-11-01T02:47:36.889Z,4.87
2017-11-01T03:02:34.937Z,3.97
2017-11-01T03:17:36.124Z,7.80
2017-11-01T03:32:33.959Z,4.57
2017-11-01T03:47:36.679Z,3.70
2017-11-01T04:02:35.040Z,3.93
2017-11-01T04:17:34.543Z,3.43
2017-11-01T04:32:35.465Z,6.63
2017-11-01T04:47:35.667Z,4.90
2017-11-01T05:02:35.217Z,7.93
2017-11-01T05:17:36.801Z,5.37
2017-11-01T05:32:35.645Z,8.73
2017-11-01T05:47:33.876Z,5.90
2017-11-01T06:02:33.837Z,5.43
2017-11-01T06:17:37.070Z,6.60
2017-11-01T06:32:36.292Z,5.40
2017-11-01T06:47:35.663Z,6.17
2017-11-01T07:02:34.692Z,9.37
2017-11-01T07:17:34.965Z,7.20
2017-11-01T07:32:34.052Z,10.20
2017-11-01T07:47:35.013Z,8.27
2017-11-01T08:02:34.891Z,8.33
2017-11-01T08:17:34.560Z,6.40
2017-11-01T08:32:34.369Z,12.07
2017-11-01T08:47:34.288Z,5.20
2017-11-01T09:02:34.265Z,7.00
2017-11-01T09:17:34.595Z,4.73
2017-11-01T09:32:34.512Z,3.07
2017-11-01T09:47:34.028Z,4.13
2017-11-01T10:02:34.373Z,3.33
2017-11-01T10:17:34.917Z,3.10
2017-11-01T10:32:34.932Z,3.63
2017-11-01T10:47:34.669Z,2.43
2017-11-01T11:02:34.599Z,3.47
2017-11-01T11:17:34.530Z,4.00
2017-11-01T11:32:33.913Z,3.30
2017-11-01T11:47:34.338Z,3.87
2017-11-01T12:02:34.323Z,5.00
2017-11-01T12:17:34.256Z,3.00
2017-11-01T12:32:34.676Z,6.27
2017-11-01T12:47:35.156Z,3.33
2017-11-01T13:02:34.992Z,4.10
2017-11-01T13:17:36.631Z,3.27
2017-11-01T13:32:34.467Z,7.50
2017-11-01T13:47:34.330Z,4.23
2017-11-01T14:02:34.288Z,5.43
2017-11-01T14:17:35.785Z,5.47
2017-11-01T14:32:34.646Z,5.20
2017-11-01T14:47:34.128Z,3.93
2017-11-01T15:02:34.577Z,10.27
2017-11-01T15:17:34.997Z,8.97
2017-11-01T15:32:34.877Z,12.47
2017-11-01T15:47:34.764Z,17.33
2017-11-01T16:02:34.734Z,12.73
2017-11-01T16:17:35.194Z,17.83
2017-11-01T16:32:37.105Z,21.40
2017-11-01T16:47:36.343Z,10.57
2017-11-01T17:02:34.428Z,11.93
2017-11-01T17:17:33.728Z,12.63
2017-11-01T17:32:34.373Z,14.53
2017-11-01T17:47:33.606Z,26.53
2017-11-01T18:02:34.108Z,28.43
2017-11-01T18:17:35.076Z,25.17
2017-11-01T18:32:34.460Z,25.63
2017-11-01T18:47:33.148Z,23.40
2017-11-01T19:02:36.257Z,23.90
2017-11-01T19:17:37.172Z,24.20
2017-11-01T19:32:34.914Z,25.90
2017-11-01T19:47:34.724Z,23.43
2017-11-01T20:02:34.645Z,20.63
2017-11-01T20:17:35.205Z,30.80
2017-11-01T20:32:35.084Z,40.37
2017-11-01T20:47:37.140Z,32.63
2017-11-01T21:02:34.953Z,32.13
2017-11-01T21:17:34.398Z,20.27
2017-11-01T21:32:34.329Z,24.13
2017-11-01T21:47:34.206Z,20.83
2017-11-01T22:02:38.557Z,27.00
2017-11-01T22:17:34.567Z,32.77
2017-11-01T22:32:33.982Z,35.17
2017-11-01T22:47:36.880Z,33.37
2017-11-01T23:02:36.402Z,30.93
2017-11-01T23:17:34.764Z,30.00
2017-11-01T23:32:36.755Z,26.60
2017-11-01T23:47:34.171Z,25.63
